Vremea acum in Zlatna - Romania

Vrei sa afli care e starea vremii acum in Arad - Romania? Dorim sa iti furnizam starea vremii pentru Arad - Romania. Starea vremii Arad - Romania pentru astazi.

Vremea acum in Zlatna

Temperatura: 9 °C

Se simte ca: 9 °C
Innorat: 0 %
Precipitatii: %
Presiune atmosferica: 1021 hPa
Umiditate: 76%
Vizibilitate: 10 km
Vantul bate din NNW cu 0 km/h

Evolutia vremii in Zlatna pe ore

Ora: 21:00
Temperatura: °C
Sansa de precipitatii: %
Ora Descriere Temp Se simte Precipitatii Umiditate Vant
00:00Parțial noros10.1°10.1°0%65%NNW 2.5 KM/H
01:00Parțial noros9.5°9.5°0%68%NNW 2.5 KM/H
02:00Parțial noros0%71%NNW 2.5 KM/H
03:00Parțial noros8.8°8.8°0%72%SW 2.9 KM/H
04:00Parțial noros8.5°8.7°0%72%ESE 2.9 KM/H
05:00Parțial noros8.3°8.5°0%73%N 3.2 KM/H
06:00Parțial noros9.3°0%70%N 3.2 KM/H
07:00Parțial noros9.8°10°0%67%NNE 3.6 KM/H
08:00Parțial noros10.5°10.8°0%65%NNE 3.6 KM/H
09:00Parțial noros13.7°13.9°0%57%NE 5 KM/H
10:00Parțial noros16.9°17°0%49%NE 6.5 KM/H
11:00Parțial noros20.1°20.1°0%41%NE 7.9 KM/H
12:00Parțial noros21.1°21.1°0%39%NE 7.9 KM/H
13:00Parțial noros22.1°22.7°0%36%NE 7.6 KM/H
14:00Parțial noros23.1°24°0%34%ENE 7.6 KM/H
15:00Parțial noros21°21°0%37%ENE 6.8 KM/H
16:00Parțial noros19°19°0%41%ENE 5.8 KM/H
17:00Parțial noros16.9°16.9°0%44%ENE 5 KM/H
18:00Parțial noros15.4°15.4°0%49%SE 3.6 KM/H
19:00Parțial noros13.8°13.8°0%53%SW 2.5 KM/H
20:00Parțial noros12.3°12.3°0%57%WNW 1.1 KM/H
21:00Parțial noros12°12°0%59%WNW 1.4 KM/H
22:00Parțial noros11.7°11.7°0%60%NW 1.8 KM/H
23:00Parțial noros11.4°11.4°0%61%NW 2.2 KM/H